Time;durP1;ratioP1;P1;durP2;ratioP2;P2;SDS_P1;SDS_P2;PMS_P1;PMS_P2;Temp;Humidity;BMP_temperature;BMP_pressure;BME280_temperature;BME280_humidity;BME280_pressure;Samples;Min_cycle;Max_cycle;Signal;HPM_P1;HPM_P2
2021/10/07 00:00:53;;;;;;;13.45;6.20;;;;;;;3.73;62.13;101691.17;1767726;80;21033;-66
2021/10/07 00:03:19;;;;;;;9.30;5.20;;;;;;;3.69;62.29;101684.00;1772163;80;21206;-71
2021/10/07 00:05:48;;;;;;;10.88;6.25;;;;;;;3.68;62.31;101691.64;1773416;80;21013;-70
2021/10/07 00:08:14;;;;;;;20.37;7.00;;;;;;;3.67;62.39;101691.78;1765167;80;20937;-69
2021/10/07 00:10:41;;;;;;;9.90;5.40;;;;;;;3.67;62.40;101687.30;1761561;80;21034;-71
2021/10/07 00:13:07;;;;;;;9.45;5.37;;;;;;;3.65;62.43;101691.94;1763844;80;21072;-72
2021/10/07 00:15:33;;;;;;;8.60;5.58;;;;;;;3.63;62.51;101687.77;1761580;80;21144;-70
2021/10/07 00:18:00;;;;;;;9.23;5.12;;;;;;;3.58;62.65;101684.25;1730818;80;21047;-67
2021/10/07 00:20:27;;;;;;;6.87;5.33;;;;;;;3.59;62.56;101693.07;1740832;81;20905;-71
2021/10/07 00:22:54;;;;;;;8.00;5.97;;;;;;;3.59;62.63;101689.92;1761197;80;20972;-69
2021/10/07 00:25:20;;;;;;;7.80;4.92;;;;;;;3.54;62.72;101687.37;1773321;80;21009;-68
2021/10/07 00:27:46;;;;;;;16.10;5.60;;;;;;;3.51;62.71;101691.17;1777184;80;21131;-66
2021/10/07 00:30:17;;;;;;;8.75;5.37;;;;;;;3.50;62.76;101692.98;1772948;80;21556;-67
2021/10/07 00:32:56;;;;;;;13.55;5.10;;;;;;;3.47;62.94;101690.64;1777264;80;21075;-68
2021/10/07 00:35:40;;;;;;;10.23;5.60;;;;;;;3.45;62.86;101689.95;1748345;80;20988;-68
2021/10/07 00:40:36;;;;;;;10.90;6.40;;;;;;;3.45;62.92;101685.96;1766442;80;23331;-68
2021/10/07 00:43:03;;;;;;;11.90;6.15;;;;;;;3.47;62.91;101691.98;1752874;80;20985;-67
2021/10/07 00:45:29;;;;;;;10.32;5.37;;;;;;;3.44;63.21;101691.46;1758278;79;20969;-69
2021/10/07 00:47:55;;;;;;;10.98;5.30;;;;;;;3.38;63.22;101691.58;1803335;79;20970;-67
2021/10/07 00:50:22;;;;;;;9.13;5.92;;;;;;;3.36;63.27;101694.03;1749419;81;21537;-68
2021/10/07 00:52:48;;;;;;;11.40;7.08;;;;;;;3.35;63.25;101697.70;1761236;80;20983;-70
2021/10/07 00:55:14;;;;;;;21.00;6.67;;;;;;;3.33;63.39;101701.00;1746415;80;20995;-71
2021/10/07 00:57:41;;;;;;;11.78;5.25;;;;;;;3.31;63.37;101703.80;1746163;81;20972;-70
2021/10/07 01:00:09;;;;;;;8.78;5.20;;;;;;;3.29;63.47;101700.97;1762501;80;21067;-69
2021/10/07 01:02:37;;;;;;;10.53;5.17;;;;;;;3.27;63.46;101702.44;1722100;81;20976;-71
2021/10/07 01:05:04;;;;;;;14.40;5.62;;;;;;;3.26;63.47;101705.28;1750921;80;21185;-69
2021/10/07 01:07:30;;;;;;;8.83;5.75;;;;;;;3.26;63.41;101707.94;1766050;80;21474;-71
2021/10/07 01:09:57;;;;;;;11.43;5.78;;;;;;;3.27;63.44;101708.25;1768806;80;21037;-71
2021/10/07 01:12:23;;;;;;;11.00;5.53;;;;;;;3.27;63.35;101706.92;1753092;80;20985;-70
2021/10/07 01:14:52;;;;;;;8.33;5.85;;;;;;;3.29;63.34;101706.29;1748244;80;21024;-69
2021/10/07 01:17:23;;;;;;;8.07;6.20;;;;;;;3.28;63.33;101705.94;1750180;79;22246;-69
2021/10/07 01:19:51;;;;;;;12.82;5.10;;;;;;;3.26;63.33;101711.41;1764589;79;20984;-68
2021/10/07 01:22:19;;;;;;;8.53;5.33;;;;;;;3.25;63.40;101715.56;1766728;79;20882;-69
2021/10/07 01:24:46;;;;;;;9.38;5.50;;;;;;;3.20;63.53;101708.54;1769725;79;20992;-66
2021/10/07 01:27:12;;;;;;;11.70;5.50;;;;;;;3.18;63.53;101714.48;1764753;79;21001;-69
2021/10/07 01:30:02;;;;;;;9.05;4.97;;;;;;;3.16;63.62;101709.34;1764250;79;22267;-67
2021/10/07 01:32:28;;;;;;;9.38;5.22;;;;;;;3.17;63.58;101720.79;1776229;80;21524;-74
2021/10/07 01:34:54;;;;;;;9.55;5.40;;;;;;;3.16;63.61;101718.66;1774454;80;20912;-70
2021/10/07 01:37:21;;;;;;;8.93;6.15;;;;;;;3.15;63.64;101724.11;1747281;80;20993;-75
2021/10/07 01:39:47;;;;;;;7.60;4.90;;;;;;;3.12;63.65;101722.58;1737137;82;21013;-68
2021/10/07 01:42:14;;;;;;;13.28;6.37;;;;;;;3.13;63.74;101724.25;1720803;83;21151;-67
2021/10/07 01:44:40;;;;;;;10.50;5.58;;;;;;;3.13;63.78;101735.37;1707925;82;21049;-67
2021/10/07 01:47:06;;;;;;;8.28;5.95;;;;;;;3.08;63.77;101726.04;1677362;84;21490;-67
2021/10/07 01:49:33;;;;;;;8.20;5.03;;;;;;;3.10;63.78;101723.23;1715389;81;21148;-65
2021/10/07 01:52:00;;;;;;;8.90;5.42;;;;;;;3.10;63.78;101729.88;1746865;81;21012;-68
2021/10/07 01:54:26;;;;;;;12.43;6.37;;;;;;;3.09;63.79;101732.20;1732996;81;23369;-68
2021/10/07 01:56:52;;;;;;;8.35;5.17;;;;;;;3.06;63.80;101733.34;1713704;82;21022;-66
2021/10/07 01:59:19;;;;;;;7.62;5.67;;;;;;;3.04;63.86;101733.98;1753531;81;21664;-66
2021/10/07 02:01:45;;;;;;;9.68;5.95;;;;;;;3.03;63.92;101735.45;1769869;81;21485;-66
2021/10/07 02:04:11;;;;;;;11.08;5.47;;;;;;;3.00;63.93;101732.61;1745741;81;20976;-68
2021/10/07 02:06:38;;;;;;;7.92;5.33;;;;;;;2.97;64.03;101732.09;1713780;82;21212;-68
2021/10/07 02:09:06;;;;;;;12.98;4.60;;;;;;;2.97;64.06;101740.87;1702831;81;20988;-66
2021/10/07 02:11:33;;;;;;;16.20;5.80;;;;;;;2.94;64.17;101736.35;1739041;82;20992;-67
2021/10/07 02:14:00;;;;;;;7.45;4.55;;;;;;;2.91;64.25;101739.32;1757887;81;21068;-67
2021/10/07 02:16:28;;;;;;;9.25;6.10;;;;;;;2.89;64.33;101739.46;1739329;81;21019;-67
2021/10/07 02:18:55;;;;;;;8.55;5.42;;;;;;;2.85;64.41;101744.73;1726345;83;22289;-66
2021/10/07 02:21:21;;;;;;;7.00;5.00;;;;;;;2.82;64.55;101743.72;1709410;84;21020;-66
2021/10/07 02:23:47;;;;;;;8.00;5.30;;;;;;;2.82;64.56;101743.72;1739581;81;21044;-67
2021/10/07 02:26:13;;;;;;;8.08;4.92;;;;;;;2.83;64.62;101749.88;1740775;79;21528;-65
2021/10/07 02:28:40;;;;;;;8.75;6.10;;;;;;;2.82;64.67;101745.05;1726416;81;21087;-65
2021/10/07 02:31:08;;;;;;;9.65;7.80;;;;;;;2.80;64.78;101743.02;1738885;82;21477;-66
2021/10/07 02:33:34;;;;;;;13.32;5.97;;;;;;;2.79;64.75;101749.80;1746690;81;21063;-67
2021/10/07 02:36:00;;;;;;;6.87;5.45;;;;;;;2.79;64.75;101749.80;1719260;83;20983;-67
2021/10/07 02:38:27;;;;;;;9.40;6.35;;;;;;;2.79;64.77;101749.80;1738906;82;21032;-66
2021/10/07 02:40:53;;;;;;;8.65;6.15;;;;;;;2.79;64.77;101754.63;1713729;82;21059;-68
2021/10/07 02:43:19;;;;;;;16.95;7.87;;;;;;;2.79;64.86;101753.30;1726525;81;21061;-67
2021/10/07 02:45:46;;;;;;;14.58;10.88;;;;;;;2.79;64.80;101753.78;1728860;81;20996;-67
2021/10/07 02:48:12;;;;;;;14.98;11.15;;;;;;;2.78;64.82;101760.92;1745977;81;20940;-66
2021/10/07 02:50:40;;;;;;;16.05;10.20;;;;;;;2.75;64.97;101761.72;1713488;82;21079;-67
2021/10/07 02:53:07;;;;;;;12.70;7.72;;;;;;;2.71;65.06;101764.33;1739209;81;20977;-67
2021/10/07 02:55:33;;;;;;;19.48;8.38;;;;;;;2.64;65.30;101762.74;1767654;81;21158;-67
2021/10/07 02:57:59;;;;;;;24.05;9.78;;;;;;;2.55;65.96;101766.28;1759778;81;20965;-67
2021/10/07 03:00:25;;;;;;;14.03;7.53;;;;;;;2.44;66.47;101770.48;1744265;81;21560;-65
2021/10/07 03:02:52;;;;;;;12.93;7.35;;;;;;;2.29;67.26;101772.77;1769417;81;21290;-67
2021/10/07 03:05:18;;;;;;;12.00;7.65;;;;;;;2.17;67.75;101773.42;1769185;81;21423;-68
2021/10/07 03:07:44;;;;;;;11.15;7.17;;;;;;;2.12;68.28;101774.34;1746486;81;20993;-69
2021/10/07 03:10:11;;;;;;;15.80;7.67;;;;;;;2.04;68.40;101776.05;1739200;82;20941;-69
2021/10/07 03:12:37;;;;;;;11.20;6.50;;;;;;;1.99;68.79;101779.13;1756370;81;21064;-66
2021/10/07 03:15:05;;;;;;;14.53;6.87;;;;;;;1.94;69.33;101784.02;1733830;82;21020;-66
2021/10/07 03:17:32;;;;;;;13.88;7.20;;;;;;;1.90;69.32;101791.09;1729637;82;20925;-69
2021/10/07 03:19:58;;;;;;;10.72;7.53;;;;;;;1.86;69.44;101789.22;1741209;82;21170;-65
2021/10/07 03:22:25;;;;;;;13.05;8.20;;;;;;;1.86;69.70;101787.89;1742650;82;21498;-65
2021/10/07 03:24:51;;;;;;;11.85;8.65;;;;;;;1.78;70.11;101785.09;1705687;83;20992;-66
2021/10/07 03:27:18;;;;;;;21.33;13.45;;;;;;;1.75;70.08;101783.57;1721897;82;20945;-70
2021/10/07 03:29:44;;;;;;;43.75;27.55;;;;;;;1.77;70.09;101786.58;1716355;82;21012;-71
2021/10/07 03:32:10;;;;;;;56.40;37.93;;;;;;;1.77;70.17;101782.59;1742606;82;21166;-68
2021/10/07 03:34:36;;;;;;;37.57;27.30;;;;;;;1.79;70.14;101787.25;1707637;83;20933;-68
2021/10/07 03:37:03;;;;;;;39.58;28.55;;;;;;;1.81;70.14;101783.98;1690505;82;21024;-68
2021/10/07 03:39:30;;;;;;;27.87;21.13;;;;;;;1.80;70.12;101783.14;1703379;83;21103;-67
2021/10/07 03:41:57;;;;;;;22.70;16.27;;;;;;;1.78;70.35;101789.06;1688584;83;21585;-66
2021/10/07 03:44:23;;;;;;;20.32;13.48;;;;;;;1.68;70.59;101789.08;1718625;82;21504;-67
2021/10/07 03:46:49;;;;;;;17.57;11.63;;;;;;;1.68;70.65;101791.73;1735235;82;21055;-65
2021/10/07 03:49:16;;;;;;;11.60;6.97;;;;;;;1.67;70.67;101786.10;1700188;82;20933;-68
2021/10/07 03:51:43;;;;;;;9.17;7.47;;;;;;;1.67;70.73;101786.59;1739261;82;21036;-68
2021/10/07 03:54:10;;;;;;;14.00;7.40;;;;;;;1.68;70.64;101793.54;1756490;81;21012;-68
2021/10/07 03:56:38;;;;;;;12.93;7.10;;;;;;;1.67;70.71;101798.03;1713857;82;21126;-69
2021/10/07 03:59:04;;;;;;;9.87;7.13;;;;;;;1.65;70.71;101799.98;1759155;81;21012;-70
2021/10/07 04:01:30;;;;;;;10.30;7.63;;;;;;;1.64;70.87;101798.30;1752816;81;21520;-67
2021/10/07 04:03:57;;;;;;;12.90;7.47;;;;;;;1.59;71.04;101801.86;1713787;82;21530;-66
2021/10/07 04:06:23;;;;;;;16.37;7.93;;;;;;;1.53;71.33;101799.78;1756311;81;21564;-66
2021/10/07 04:08:50;;;;;;;16.83;8.90;;;;;;;1.50;71.45;101804.50;1701883;83;21262;-65
2021/10/07 04:11:16;;;;;;;23.30;12.30;;;;;;;1.48;71.72;101800.69;1714174;82;20976;-64
2021/10/07 04:13:42;;;;;;;21.40;12.30;;;;;;;1.43;71.69;101802.08;1712591;82;21053;-64
2021/10/07 04:16:08;;;;;;;20.53;12.33;;;;;;;1.49;71.71;101802.34;1739253;82;21019;-66
2021/10/07 04:18:38;;;;;;;27.67;14.90;;;;;;;1.54;71.58;101801.92;1730445;81;21015;-67
2021/10/07 04:21:04;;;;;;;28.00;15.23;;;;;;;1.57;71.59;101800.34;1728231;81;21190;-66
2021/10/07 04:23:30;;;;;;;33.30;17.13;;;;;;;1.52;71.65;101807.88;1769522;81;20925;-65
2021/10/07 04:25:56;;;;;;;26.17;13.90;;;;;;;1.44;71.90;101803.24;1753560;81;21007;-65
2021/10/07 04:28:22;;;;;;;21.00;13.17;;;;;;;1.45;71.92;101808.91;1707803;83;21082;-66
2021/10/07 04:30:49;;;;;;;14.73;8.63;;;;;;;1.49;71.85;101808.97;1714195;82;22188;-66
2021/10/07 04:33:15;;;;;;;12.30;6.93;;;;;;;1.51;71.90;101809.68;1708017;81;21822;-65
2021/10/07 04:35:42;;;;;;;12.67;6.73;;;;;;;1.50;71.93;101813.78;1718579;82;20972;-66
2021/10/07 04:38:09;;;;;;;10.10;7.27;;;;;;;1.48;71.85;101809.97;1693226;82;21522;-66
2021/10/07 04:40:36;;;;;;;11.60;6.27;;;;;;;1.50;71.81;101811.14;1737618;82;21451;-66
2021/10/07 04:43:03;;;;;;;17.73;7.37;;;;;;;1.52;71.69;101817.99;1756384;81;21033;-67
2021/10/07 04:45:30;;;;;;;12.07;7.50;;;;;;;1.55;71.62;101820.84;1717185;82;21552;-66
2021/10/07 04:47:56;;;;;;;16.80;6.90;;;;;;;1.52;71.61;101814.02;1738800;82;20953;-73
2021/10/07 04:50:23;;;;;;;12.70;6.50;;;;;;;1.55;71.61;101822.17;1749359;81;20933;-66
2021/10/07 04:52:49;;;;;;;10.07;6.73;;;;;;;1.59;71.54;101816.92;1718794;81;21050;-66
2021/10/07 04:55:15;;;;;;;19.03;6.73;;;;;;;1.66;71.38;101822.04;1758278;81;21095;-66
2021/10/07 04:57:41;;;;;;;12.20;8.77;;;;;;;1.72;71.25;101825.47;1718031;81;22015;-67
2021/10/07 05:00:10;;;;;;;14.03;6.60;;;;;;;1.79;70.96;101830.55;1739187;82;20996;-66
2021/10/07 05:02:38;;;;;;;23.03;8.53;;;;;;;1.86;70.77;101829.02;1727457;81;20987;-65
2021/10/07 05:05:07;;;;;;;14.57;6.90;;;;;;;1.91;70.58;101831.25;1711971;82;21076;-66
2021/10/07 05:07:33;;;;;;;9.30;6.63;;;;;;;1.99;70.46;101836.67;1743573;81;21510;-66
2021/10/07 05:10:00;;;;;;;14.80;8.60;;;;;;;2.05;70.11;101831.65;1728217;81;21360;-67
2021/10/07 05:12:26;;;;;;;11.43;6.90;;;;;;;2.10;70.02;101833.39;1713780;82;21024;-67
2021/10/07 05:14:53;;;;;;;20.50;7.93;;;;;;;2.17;69.73;101834.96;1713544;82;21009;-68
2021/10/07 05:17:20;;;;;;;15.93;9.33;;;;;;;2.22;69.50;101834.05;1738859;81;21531;-67
2021/10/07 05:19:46;;;;;;;25.67;9.20;;;;;;;2.28;69.25;101844.10;1717691;82;21454;-67
2021/10/07 05:22:12;;;;;;;12.87;8.80;;;;;;;2.31;69.09;101842.97;1701176;83;21022;-67
2021/10/07 05:24:40;;;;;;;20.63;7.50;;;;;;;2.35;68.93;101843.86;1738917;82;20983;-67
2021/10/07 05:27:06;;;;;;;24.70;9.07;;;;;;;2.42;68.66;101840.15;1717824;82;20976;-67
2021/10/07 05:29:33;;;;;;;34.87;11.47;;;;;;;2.47;68.53;101844.05;1739140;81;20989;-68
2021/10/07 05:32:00;;;;;;;45.80;11.65;;;;;;;2.51;68.29;101841.94;1755849;81;21087;-66
2021/10/07 05:34:27;;;;;;;23.90;10.40;;;;;;;2.53;68.13;101858.09;1731276;81;20997;-68
2021/10/07 05:36:53;;;;;;;39.08;10.55;;;;;;;2.55;67.96;101845.48;1754851;81;21609;-67
2021/10/07 05:39:19;;;;;;;35.37;10.00;;;;;;;2.59;67.88;101847.38;1730756;81;21540;-66
2021/10/07 05:41:46;;;;;;;30.43;10.53;;;;;;;2.63;67.79;101850.93;1745698;81;20983;-66
2021/10/07 05:44:12;;;;;;;30.80;11.20;;;;;;;2.67;67.69;101846.16;1718356;81;21043;-66
2021/10/07 05:46:39;;;;;;;35.70;10.97;;;;;;;2.72;67.63;101847.05;1754793;81;21130;-67
2021/10/07 05:49:05;;;;;;;21.62;11.15;;;;;;;2.74;67.41;101848.55;1691139;84;20915;-65
2021/10/07 05:51:34;;;;;;;38.55;11.40;;;;;;;2.74;67.39;101847.72;1724995;82;21460;-65
2021/10/07 05:54:02;;;;;;;19.25;8.13;;;;;;;2.78;67.38;101853.11;1705921;83;21043;-69
2021/10/07 05:56:28;;;;;;;27.30;10.15;;;;;;;2.83;67.34;101857.50;1707139;83;21083;-67
2021/10/07 05:58:55;;;;;;;40.25;10.82;;;;;;;2.88;67.26;101857.37;1732809;77;22957;-65
2021/10/07 06:01:21;;;;;;;41.45;13.68;;;;;;;2.92;67.26;101856.13;1733807;81;21083;-66
2021/10/07 06:03:47;;;;;;;45.35;12.45;;;;;;;2.98;67.16;101866.14;1728827;81;20989;-68
2021/10/07 06:06:14;;;;;;;49.83;11.45;;;;;;;3.02;67.09;101864.86;1729679;80;21030;-66
2021/10/07 06:08:41;;;;;;;29.65;11.48;;;;;;;3.07;67.04;101860.43;1755326;81;21500;-64
2021/10/07 06:11:07;;;;;;;40.25;14.45;;;;;;;3.14;67.08;101866.00;1736008;81;21657;-65
2021/10/07 06:13:33;;;;;;;22.98;9.03;;;;;;;3.20;67.05;101866.75;1770205;79;21043;-68
2021/10/07 06:16:00;;;;;;;26.27;7.70;;;;;;;3.26;67.05;101861.66;1770506;79;20940;-67
2021/10/07 06:18:26;;;;;;;46.10;11.95;;;;;;;3.34;67.06;101864.42;1792792;79;20940;-68
2021/10/07 06:20:53;;;;;;;36.95;9.65;;;;;;;3.41;67.03;101863.31;1762229;81;21047;-67
2021/10/07 06:23:19;;;;;;;29.10;9.35;;;;;;;3.49;66.95;101863.42;1732253;82;21059;-66
2021/10/07 06:25:45;;;;;;;20.90;10.63;;;;;;;3.57;66.91;101854.18;1726986;81;21469;-69
2021/10/07 06:28:12;;;;;;;35.70;10.30;;;;;;;3.67;66.81;101859.44;1715481;83;21044;-68
2021/10/07 06:30:38;;;;;;;40.78;9.93;;;;;;;3.76;66.71;101855.36;1727757;83;21473;-67
2021/10/07 06:33:05;;;;;;;19.67;8.83;;;;;;;3.85;66.42;101857.11;1679762;82;21554;-67
2021/10/07 06:35:31;;;;;;;17.75;8.58;;;;;;;3.95;65.87;101857.86;1726551;81;21338;-68
2021/10/07 06:37:58;;;;;;;30.65;8.28;;;;;;;4.05;65.48;101860.44;1773595;79;21019;-71
2021/10/07 06:40:24;;;;;;;21.35;9.73;;;;;;;4.13;65.26;101855.17;1754434;81;20976;-67
2021/10/07 06:42:51;;;;;;;12.25;6.40;;;;;;;4.22;64.93;101858.75;1757707;80;21481;-67
2021/10/07 06:45:18;;;;;;;16.73;6.78;;;;;;;4.30;64.57;101852.98;1756965;80;20981;-69
2021/10/07 06:47:44;;;;;;;11.28;5.53;;;;;;;4.39;63.83;101854.70;1759634;81;20994;-67
2021/10/07 06:50:11;;;;;;;14.80;6.22;;;;;;;4.48;63.18;101852.92;1723605;82;20983;-68
2021/10/07 06:52:41;;;;;;;13.20;6.28;;;;;;;4.57;62.38;101856.47;1719197;82;20987;-67
2021/10/07 06:55:10;;;;;;;12.55;5.62;;;;;;;4.65;62.19;101855.20;1704679;81;20959;-73
2021/10/07 06:57:38;;;;;;;17.42;5.25;;;;;;;4.73;61.85;101858.73;1694595;83;21025;-68
2021/10/07 07:00:07;;;;;;;12.65;6.00;;;;;;;4.82;61.49;101860.94;1717449;82;21217;-67
2021/10/07 07:02:38;;;;;;;8.68;5.60;;;;;;;4.91;61.06;101863.14;1734249;82;20914;-67
2021/10/07 07:05:06;;;;;;;6.08;4.97;;;;;;;4.98;60.88;101861.52;1746248;82;21089;-67
2021/10/07 07:07:34;;;;;;;8.38;5.35;;;;;;;5.07;60.67;101863.23;1639853;85;21076;-67
2021/10/07 07:10:02;;;;;;;9.00;5.17;;;;;;;5.15;60.28;101867.25;1734526;81;21505;-68
2021/10/07 07:12:29;;;;;;;9.25;4.35;;;;;;;5.21;59.67;101869.28;1735836;80;21092;-67
2021/10/07 07:14:55;;;;;;;9.15;5.15;;;;;;;5.28;59.57;101871.13;1724535;82;20960;-66
2021/10/07 07:17:21;;;;;;;14.87;6.53;;;;;;;5.36;59.43;101860.16;1747152;80;21028;-67
2021/10/07 07:19:49;;;;;;;11.35;5.12;;;;;;;5.44;59.02;101867.67;1724947;82;21494;-70
2021/10/07 07:22:16;;;;;;;8.40;4.70;;;;;;;5.54;58.66;101874.20;1730900;80;21016;-68
2021/10/07 07:24:43;;;;;;;8.88;4.42;;;;;;;5.63;57.91;101870.55;1781526;80;22035;-67
2021/10/07 07:27:11;;;;;;;7.40;4.42;;;;;;;5.71;57.76;101871.39;1765780;80;21001;-67
2021/10/07 07:29:37;;;;;;;7.08;4.60;;;;;;;5.82;56.77;101881.42;1781497;80;21008;-67
2021/10/07 07:32:05;;;;;;;4.97;4.17;;;;;;;5.88;56.78;101881.64;1778533;80;21051;-68
2021/10/07 07:34:32;;;;;;;7.42;4.00;;;;;;;6.05;56.16;101882.47;1746362;82;21536;-68
2021/10/07 07:36:58;;;;;;;8.28;3.65;;;;;;;6.05;56.16;101882.47;1746082;82;21726;-67
2021/10/07 07:39:24;;;;;;;10.48;5.45;;;;;;;6.14;55.70;101877.46;1720120;82;20928;-68
2021/10/07 07:41:51;;;;;;;15.50;5.30;;;;;;;6.21;54.76;101882.48;1729206;82;20985;-68
2021/10/07 07:44:18;;;;;;;8.23;3.98;;;;;;;6.30;54.08;101876.12;1750350;80;21057;-67
2021/10/07 07:46:44;;;;;;;14.33;4.90;;;;;;;6.36;53.29;101878.13;1734552;82;21068;-69
2021/10/07 07:49:11;;;;;;;10.32;4.70;;;;;;;6.45;53.30;101876.28;1724583;82;21209;-67
2021/10/07 07:51:37;;;;;;;12.03;4.87;;;;;;;6.53;53.13;101878.93;1746227;82;20940;-74
2021/10/07 07:54:03;;;;;;;17.07;5.28;;;;;;;6.62;52.79;101877.10;1741792;82;20949;-70
2021/10/07 07:56:30;;;;;;;13.45;4.80;;;;;;;6.72;52.69;101879.05;1719435;82;21000;-68
2021/10/07 07:58:56;;;;;;;9.83;4.45;;;;;;;6.81;52.63;101865.48;1736870;82;21041;-67
2021/10/07 08:01:24;;;;;;;8.05;4.72;;;;;;;6.94;52.63;101874.33;1657937;86;22084;-68
2021/10/07 08:03:50;;;;;;;16.90;6.70;;;;;;;7.07;52.43;101877.28;1681169;85;21518;-68
2021/10/07 08:06:16;;;;;;;26.97;7.87;;;;;;;7.16;52.13;101875.40;1665418;84;21568;-65
2021/10/07 08:08:43;;;;;;;17.55;5.37;;;;;;;7.26;52.07;101870.67;1653377;85;22186;-67
2021/10/07 08:11:09;;;;;;;22.98;7.50;;;;;;;7.35;50.62;101874.97;1686007;84;21522;-65
2021/10/07 08:13:35;;;;;;;23.67;6.22;;;;;;;7.40;50.75;101876.12;1631866;86;21256;-67
2021/10/07 08:16:04;;;;;;;21.45;8.13;;;;;;;7.47;50.39;101873.59;1666012;84;21428;-68
2021/10/07 08:18:31;;;;;;;17.85;5.60;;;;;;;7.55;49.86;101870.84;1635116;85;21524;-66
2021/10/07 08:20:57;;;;;;;11.93;6.20;;;;;;;7.62;49.40;101869.15;1712946;83;20914;-65
2021/10/07 08:23:28;;;;;;;10.58;4.03;;;;;;;7.73;48.74;101855.83;1679832;85;21080;-67
2021/10/07 08:25:52;;;;;;;13.08;4.90;;;;;;;7.82;48.56;101856.09;1657580;85;21284;-67
2021/10/07 08:28:18;;;;;;;15.78;4.25;;;;;;;7.91;48.35;101857.73;1685976;83;21484;-65
2021/10/07 08:30:44;;;;;;;32.53;6.33;;;;;;;8.00;48.29;101855.31;1686063;85;20948;-65
2021/10/07 08:33:11;;;;;;;12.43;3.92;;;;;;;8.12;47.83;101853.84;1714591;83;20984;-67
2021/10/07 08:35:38;;;;;;;7.28;4.15;;;;;;;8.21;46.83;101842.03;1682540;83;21550;-66
2021/10/07 08:38:04;;;;;;;6.42;3.45;;;;;;;8.34;46.33;101847.34;1658348;85;21183;-67
2021/10/07 08:40:31;;;;;;;11.30;3.65;;;;;;;8.43;46.56;101841.71;1656861;86;21168;-66
2021/10/07 08:42:57;;;;;;;13.03;4.37;;;;;;;8.54;46.45;101840.40;1685701;85;20992;-67
2021/10/07 08:45:24;;;;;;;16.90;4.50;;;;;;;8.64;46.73;101842.31;1653140;85;21020;-68
2021/10/07 08:47:52;;;;;;;6.10;4.55;;;;;;;8.74;46.00;101833.48;1636593;85;20972;-68
2021/10/07 08:50:19;;;;;;;7.30;3.33;;;;;;;8.86;45.51;101829.83;1685936;85;21095;-66
2021/10/07 08:52:45;;;;;;;10.70;4.35;;;;;;;8.93;45.24;101832.91;1686179;84;21034;-68
2021/10/07 08:55:12;;;;;;;5.33;3.10;;;;;;;9.02;45.04;101828.27;1705981;83;21084;-68
2021/10/07 08:57:39;;;;;;;14.33;5.17;;;;;;;9.11;45.37;101819.92;1631783;85;21020;-73
2021/10/07 09:00:08;;;;;;;7.60;4.12;;;;;;;9.25;45.20;101823.63;1721159;80;21542;-66
2021/10/07 09:02:34;;;;;;;3.67;3.10;;;;;;;9.40;44.96;101823.59;1660976;82;21046;-67
2021/10/07 09:05:22;;;;;;;17.85;4.12;;;;;;;9.51;43.78;101821.72;1740280;80;20948;-68
2021/10/07 09:08:05;;;;;;;17.80;3.72;;;;;;;9.58;43.38;101824.81;1679808;84;20938;-68
2021/10/07 09:10:55;;;;;;;7.15;3.50;;;;;;;9.69;43.39;101820.77;1655646;83;21553;-67
2021/10/07 09:13:23;;;;;;;7.15;3.50;;;;;;;9.81;42.61;101818.41;1713869;82;21009;-66
2021/10/07 09:15:52;;;;;;;19.20;4.75;;;;;;;9.91;41.73;101813.55;1710000;83;22011;-67
2021/10/07 09:18:19;;;;;;;11.95;3.33;;;;;;;10.02;41.14;101813.03;1739462;82;21000;-66
2021/10/07 09:20:49;;;;;;;17.12;3.40;;;;;;;10.15;40.08;101819.84;1687670;82;21090;-66
2021/10/07 09:23:31;;;;;;;14.03;2.77;;;;;;;10.23;39.74;101822.42;1695887;82;21053;-68
2021/10/07 09:26:08;;;;;;;6.10;3.30;;;;;;;10.32;39.52;101817.20;1716879;82;21032;-68
2021/10/07 09:28:56;;;;;;;5.53;2.55;;;;;;;10.38;39.41;101817.78;1739231;82;21911;-69
2021/10/07 09:31:29;;;;;;;22.73;5.72;;;;;;;10.44;39.40;101815.66;1709554;83;21591;-68
2021/10/07 09:34:00;;;;;;;10.23;3.22;;;;;;;10.53;39.47;101812.80;1751501;80;21032;-69
2021/10/07 09:36:27;;;;;;;9.78;3.00;;;;;;;10.62;38.92;101804.37;1724624;82;20998;-67
2021/10/07 09:38:54;;;;;;;8.63;2.50;;;;;;;10.68;39.21;101807.63;1724551;82;21009;-69
2021/10/07 09:41:23;;;;;;;8.55;3.05;;;;;;;10.75;39.24;101804.95;1761613;80;21501;-69
2021/10/07 09:44:00;;;;;;;8.15;2.92;;;;;;;10.82;39.37;101794.55;1743035;80;21055;-68
2021/10/07 09:46:50;;;;;;;10.23;3.62;;;;;;;10.88;39.09;101789.72;1761716;81;20957;-70
2021/10/07 09:49:25;;;;;;;10.82;3.12;;;;;;;10.92;39.00;101796.35;1753437;80;21073;-72
2021/10/07 09:51:55;;;;;;;4.87;2.75;;;;;;;10.98;38.47;101790.69;1727459;81;21060;-70
2021/10/07 09:54:31;;;;;;;5.55;2.55;;;;;;;11.06;38.31;101792.36;1731488;82;21788;-68
2021/10/07 09:57:00;;;;;;;12.20;2.37;;;;;;;11.13;37.65;101787.30;1723240;80;20992;-71
2021/10/07 09:59:28;;;;;;;11.35;2.65;;;;;;;11.18;37.08;101787.52;1740203;81;20902;-70
2021/10/07 10:01:55;;;;;;;3.55;2.45;;;;;;;11.27;36.91;101794.93;1714286;83;20987;-74
2021/10/07 10:04:23;;;;;;;20.20;3.87;;;;;;;11.36;36.61;101781.07;1717910;82;21085;-69
2021/10/07 10:06:50;;;;;;;10.45;2.50;;;;;;;11.46;35.37;101784.72;1736460;81;21076;-69
2021/10/07 10:09:22;;;;;;;10.00;3.70;;;;;;;11.53;35.19;101783.36;1756113;81;21538;-70
2021/10/07 10:11:48;;;;;;;4.80;2.33;;;;;;;11.57;34.62;101780.56;1759596;81;21491;-70
2021/10/07 10:14:18;;;;;;;9.03;3.22;;;;;;;11.61;34.36;101789.90;1762887;81;21029;-69
2021/10/07 10:16:46;;;;;;;10.55;4.35;;;;;;;11.64;34.35;101782.77;1731082;81;21008;-70
2021/10/07 10:19:13;;;;;;;5.05;2.30;;;;;;;11.68;34.18;101789.41;1685850;85;23249;-68
2021/10/07 10:21:40;;;;;;;6.47;2.45;;;;;;;11.70;34.30;101777.91;1689546;83;21996;-69
2021/10/07 10:24:08;;;;;;;10.78;2.58;;;;;;;11.71;34.30;101773.64;1691608;84;20986;-71
2021/10/07 10:26:38;;;;;;;3.77;2.58;;;;;;;11.76;34.06;101775.75;1672538;84;21005;-74
2021/10/07 10:29:22;;;;;;;14.40;3.58;;;;;;;11.82;34.47;101767.36;1685915;84;21585;-73
2021/10/07 10:31:52;;;;;;;5.67;2.40;;;;;;;11.91;34.51;101762.89;1685987;83;21194;-76
2021/10/07 10:34:20;;;;;;;3.02;2.30;;;;;;;12.07;34.38;101767.88;1667324;85;21551;-71
2021/10/07 10:36:56;;;;;;;6.60;2.80;;;;;;;12.23;33.93;101759.84;1711991;83;20977;-69
2021/10/07 10:39:37;;;;;;;5.37;2.17;;;;;;;12.36;33.96;101765.76;1677785;83;21577;-71
2021/10/07 10:42:19;;;;;;;10.28;2.62;;;;;;;12.46;32.67;101762.94;1691183;84;21029;-71
2021/10/07 10:44:55;;;;;;;4.50;2.10;;;;;;;12.47;32.63;101750.27;1685454;83;21123;-73
2021/10/07 10:47:27;;;;;;;5.53;2.05;;;;;;;12.51;32.44;101750.16;1686292;85;21071;-73
2021/10/07 10:50:12;;;;;;;4.30;1.95;;;;;;;12.55;32.64;101752.73;1713116;83;27215;-72
2021/10/07 10:52:46;;;;;;;10.63;2.37;;;;;;;12.54;32.05;101747.02;1686891;83;20984;-73
2021/10/07 10:55:27;;;;;;;6.45;2.33;;;;;;;12.58;32.37;101752.30;1710494;83;21028;-74
2021/10/07 10:58:06;;;;;;;7.87;2.60;;;;;;;12.61;32.85;101749.20;1710247;83;21092;-74
2021/10/07 11:00:39;;;;;;;2.45;1.87;;;;;;;12.72;32.60;101731.48;1673404;84;21039;-73
2021/10/07 11:03:15;;;;;;;6.83;2.60;;;;;;;12.83;31.75;101747.85;1676589;84;20951;-75
2021/10/07 11:06:04;;;;;;;8.25;2.30;;;;;;;12.90;31.85;101751.89;1753059;81;20968;-74
2021/10/07 11:08:47;;;;;;;3.72;2.52;;;;;;;12.91;31.54;101741.36;1727068;83;20956;-74
2021/10/07 11:11:35;;;;;;;4.42;2.45;;;;;;;12.83;32.08;101745.16;1759875;81;21126;-74
2021/10/07 11:13:56;;;;;;;5.00;2.27;;;;;;;12.87;32.38;101750.42;1751616;80;21067;-69
2021/10/07 11:16:24;;;;;;;6.55;2.47;;;;;;;12.91;31.98;101748.12;1745478;81;21035;-71
2021/10/07 11:18:50;;;;;;;12.30;3.33;;;;;;;12.97;32.18;101744.05;1735989;81;21038;-71
2021/10/07 11:21:22;;;;;;;7.25;3.33;;;;;;;13.05;32.49;101743.79;1718663;82;21554;-71
2021/10/07 11:23:52;;;;;;;9.30;2.90;;;;;;;13.11;32.28;101746.19;1723259;80;21561;-73
2021/10/07 11:26:20;;;;;;;6.80;3.25;;;;;;;13.16;32.21;101745.02;1743997;82;20937;-74
2021/10/07 11:28:48;;;;;;;9.25;2.75;;;;;;;13.26;31.95;101734.56;1716489;82;21023;-68
2021/10/07 11:32:17;;;;;;;9.20;3.05;;;;;;;13.36;31.53;101727.33;1729059;81;21024;-70